createdAt,value
2018-11-11T00:15:15.754Z,84.90
2018-11-11T00:35:10.601Z,85.50
2018-11-11T00:55:04.170Z,85.20
2018-11-11T01:14:52.137Z,85.50
2018-11-11T01:34:48.046Z,86.50
2018-11-11T01:54:40.821Z,86.70
2018-11-11T02:14:36.699Z,86.10
2018-11-11T02:34:33.310Z,87.70
2018-11-11T02:54:29.308Z,88.20
2018-11-11T03:14:23.121Z,88.60
2018-11-11T03:34:19.781Z,88.70
2018-11-11T03:54:14.185Z,88.80
2018-11-11T04:14:01.601Z,88.20
2018-11-11T04:33:57.461Z,87.30
2018-11-11T04:53:45.208Z,88.90
2018-11-11T05:13:34.981Z,89.70
2018-11-11T05:33:20.761Z,90.30
2018-11-11T05:53:15.556Z,88.80
2018-11-11T06:13:01.355Z,79.20
2018-11-11T06:32:54.065Z,67.80
2018-11-11T06:52:46.802Z,61.30
2018-11-11T07:12:34.716Z,56.40
2018-11-11T07:32:29.533Z,50.30
2018-11-11T08:12:07.938Z,47.20
2018-11-11T08:31:39.188Z,45.30
2018-11-11T08:51:27.418Z,44.10
2018-11-11T09:11:24.320Z,42.00
2018-11-11T09:31:22.092Z,40.80
2018-11-11T09:51:15.957Z,39.50
2018-11-11T10:11:13.707Z,39.50
2018-11-11T10:31:11.710Z,40.80
2018-11-11T10:51:06.952Z,39.60
2018-11-11T11:10:52.176Z,41.70
2018-11-11T11:30:47.074Z,42.70
2018-11-11T11:50:42.940Z,47.60
2018-11-11T12:10:36.736Z,47.20
2018-11-11T12:30:20.483Z,48.10
2018-11-11T12:50:18.377Z,48.30
2018-11-11T13:10:14.660Z,48.20
2018-11-11T13:30:03.309Z,48.80
2018-11-11T13:50:00.166Z,49.90
2018-11-11T14:09:54.978Z,52.90
2018-11-11T14:29:46.296Z,54.00
2018-11-11T14:49:39.220Z,56.40
2018-11-11T15:09:35.718Z,58.80
2018-11-11T15:29:27.251Z,61.20
2018-11-11T15:49:12.561Z,63.60
2018-11-11T16:29:03.184Z,67.00
2018-11-11T17:08:45.865Z,67.60
2018-11-11T17:28:33.999Z,70.10
2018-11-11T17:48:21.463Z,71.60
2018-11-11T18:08:17.213Z,72.90
2018-11-11T18:28:09.495Z,73.90
2018-11-11T18:47:57.751Z,75.40
2018-11-11T19:07:49.587Z,76.00
2018-11-11T19:47:24.901Z,77.70
2018-11-11T20:07:10.810Z,77.50
2018-11-11T20:27:03.042Z,79.00
2018-11-11T20:46:45.240Z,79.20
2018-11-11T21:06:24.403Z,78.90
2018-11-11T21:26:06.620Z,80.00
2018-11-11T21:45:59.331Z,80.40
2018-11-11T22:05:48.285Z,80.70
2018-11-11T22:25:50.937Z,81.60
2018-11-11T23:05:14.521Z,82.80
2018-11-11T23:24:59.736Z,82.90
2018-11-11T23:44:33.651Z,82.70
